createdAt,value
2019-01-09T00:01:51.138Z,3.97
2019-01-09T00:10:06.985Z,3.40
2019-01-09T00:12:48.717Z,3.47
2019-01-09T00:18:32.815Z,2.80
2019-01-09T00:21:14.332Z,2.50
2019-01-09T00:23:58.380Z,2.20
2019-01-09T00:32:59.261Z,2.53
2019-01-09T00:38:40.658Z,2.47
2019-01-09T00:44:11.690Z,2.83
2019-01-09T00:46:54.912Z,2.80
2019-01-09T00:49:37.771Z,2.83
2019-01-09T00:55:05.779Z,2.10
2019-01-09T01:00:31.264Z,2.33
2019-01-09T01:03:13.793Z,2.23
2019-01-09T01:05:56.387Z,2.40
2019-01-09T01:08:39.014Z,2.13
2019-01-09T01:11:25.301Z,1.87
2019-01-09T01:14:11.420Z,2.03
2019-01-09T01:16:56.950Z,1.73
2019-01-09T01:25:30.229Z,2.00
2019-01-09T01:28:13.049Z,1.70
2019-01-09T01:30:55.932Z,1.57
2019-01-09T01:33:39.377Z,1.80
2019-01-09T01:36:20.715Z,1.63
2019-01-09T01:41:46.812Z,1.87
2019-01-09T01:48:07.436Z,1.70
2019-01-09T01:50:48.897Z,1.80
2019-01-09T01:53:58.610Z,1.83
2019-01-09T01:56:51.623Z,2.67
2019-01-09T01:59:36.819Z,2.00
2019-01-09T02:02:26.711Z,2.10
2019-01-09T02:05:11.784Z,1.87
2019-01-09T02:07:52.931Z,1.40
2019-01-09T02:10:35.555Z,1.93
2019-01-09T02:13:18.190Z,1.83
2019-01-09T02:16:00.911Z,1.70
2019-01-09T02:18:42.079Z,1.80
2019-01-09T02:21:23.439Z,1.73
2019-01-09T02:24:04.833Z,1.63
2019-01-09T02:26:46.550Z,1.67
2019-01-09T02:44:19.682Z,1.53
2019-01-09T02:50:15.086Z,1.83
2019-01-09T02:52:56.055Z,1.77
2019-01-09T02:58:36.465Z,2.33
2019-01-09T03:04:05.540Z,1.97
2019-01-09T03:06:48.042Z,2.10
2019-01-09T03:09:30.785Z,2.43
2019-01-09T03:12:15.130Z,2.00
2019-01-09T03:14:59.809Z,2.50
2019-01-09T03:17:43.564Z,2.30
2019-01-09T03:20:25.516Z,2.30
2019-01-09T03:23:07.114Z,2.13
2019-01-09T03:25:49.195Z,1.50
2019-01-09T03:28:31.912Z,2.13
2019-01-09T03:31:14.754Z,1.70
2019-01-09T03:33:56.942Z,1.70
2019-01-09T03:36:38.659Z,1.67
2019-01-09T03:39:21.961Z,1.40
2019-01-09T03:42:05.418Z,1.40
2019-01-09T03:44:48.623Z,1.47
2019-01-09T03:47:34.129Z,1.70
2019-01-09T04:04:51.502Z,1.50
2019-01-09T04:10:16.253Z,1.37
2019-01-09T04:13:08.303Z,2.27
2019-01-09T04:15:51.498Z,2.30
2019-01-09T04:18:34.842Z,2.97
2019-01-09T04:24:07.094Z,2.90
2019-01-09T04:26:50.085Z,3.83
2019-01-09T04:29:33.214Z,3.20
2019-01-09T04:32:17.478Z,3.03
2019-01-09T04:34:58.501Z,3.10
2019-01-09T04:41:04.852Z,3.57
2019-01-09T04:43:28.069Z,3.60
2019-01-09T04:46:12.982Z,3.07
2019-01-09T04:48:59.691Z,3.10
2019-01-09T04:58:00.305Z,3.33
2019-01-09T05:00:50.703Z,3.47
2019-01-09T05:09:32.638Z,3.07
2019-01-09T05:12:15.285Z,3.57
2019-01-09T05:15:00.555Z,3.47
2019-01-09T05:23:54.142Z,3.20
2019-01-09T05:26:41.715Z,3.13
2019-01-09T05:29:25.663Z,2.73
2019-01-09T05:32:07.834Z,3.07
2019-01-09T05:34:51.328Z,3.13
2019-01-09T05:37:34.187Z,2.60
2019-01-09T05:43:04.231Z,3.43
2019-01-09T05:45:54.316Z,3.50
2019-01-09T05:48:45.272Z,3.67
2019-01-09T05:51:19.458Z,4.13
2019-01-09T05:54:06.331Z,4.90
2019-01-09T05:56:50.719Z,4.80
2019-01-09T05:59:52.419Z,5.43
2019-01-09T06:02:27.863Z,6.10
2019-01-09T06:05:07.256Z,6.30
2019-01-09T06:10:37.348Z,4.43
2019-01-09T06:13:15.608Z,5.93
2019-01-09T06:15:58.253Z,5.27
2019-01-09T06:18:43.769Z,3.57
2019-01-09T06:21:24.911Z,5.43
2019-01-09T06:24:06.197Z,5.73
2019-01-09T06:26:56.815Z,5.33
2019-01-09T06:29:54.747Z,6.27
2019-01-09T06:32:36.710Z,6.27
2019-01-09T06:35:29.179Z,7.13
2019-01-09T06:38:12.119Z,6.60
2019-01-09T06:43:47.879Z,4.63
2019-01-09T06:55:12.141Z,5.60
2019-01-09T06:57:56.584Z,5.40
2019-01-09T07:00:42.531Z,7.00
2019-01-09T07:04:15.986Z,7.83
2019-01-09T07:06:19.886Z,8.20
2019-01-09T07:11:44.569Z,8.37
2019-01-09T07:23:10.283Z,10.30
2019-01-09T07:28:41.699Z,10.63
2019-01-09T07:31:21.057Z,13.47
2019-01-09T07:34:04.819Z,12.37
2019-01-09T07:36:42.330Z,11.97
2019-01-09T07:39:32.726Z,12.43
2019-01-09T07:42:17.796Z,12.83
2019-01-09T07:45:00.549Z,13.67
2019-01-09T07:50:25.873Z,14.40
2019-01-09T07:55:39.026Z,13.67
2019-01-09T08:01:36.565Z,14.73
2019-01-09T08:04:14.040Z,16.63
2019-01-09T08:07:39.169Z,15.40
2019-01-09T08:12:47.278Z,16.27
2019-01-09T08:15:34.226Z,16.43
2019-01-09T08:18:18.528Z,15.67
2019-01-09T08:21:05.333Z,15.10
2019-01-09T08:23:45.784Z,15.37
2019-01-09T08:26:26.878Z,15.97
2019-01-09T08:29:14.720Z,16.17
2019-01-09T08:31:59.139Z,16.23
2019-01-09T08:34:40.495Z,15.20
2019-01-09T08:40:05.033Z,13.90
2019-01-09T08:42:49.926Z,15.90
2019-01-09T08:45:31.963Z,14.57
2019-01-09T08:50:55.958Z,14.27
2019-01-09T08:53:37.622Z,13.83
2019-01-09T08:56:20.216Z,13.90
2019-01-09T09:01:57.532Z,13.87
2019-01-09T09:04:38.303Z,14.47
2019-01-09T09:10:22.349Z,13.97
2019-01-09T09:15:51.044Z,12.63
2019-01-09T09:18:32.145Z,12.30
2019-01-09T09:21:13.664Z,11.90
2019-01-09T09:27:15.789Z,11.83
2019-01-09T09:33:16.062Z,12.57
2019-01-09T09:35:59.300Z,13.87
2019-01-09T09:38:44.535Z,14.50
2019-01-09T09:41:15.296Z,14.17
2019-01-09T09:49:44.417Z,15.67
2019-01-09T09:55:12.870Z,27.73
2019-01-09T09:57:52.074Z,23.00
2019-01-09T10:03:22.713Z,17.07
2019-01-09T10:06:10.551Z,19.33
2019-01-09T10:08:57.565Z,18.43
2019-01-09T10:11:38.960Z,19.00
2019-01-09T10:14:25.812Z,19.97
2019-01-09T10:20:31.225Z,21.13
2019-01-09T10:26:04.700Z,22.50
2019-01-09T10:31:17.083Z,25.33
2019-01-09T10:40:01.699Z,27.80
2019-01-09T10:42:45.863Z,27.57
2019-01-09T10:48:17.414Z,28.40
2019-01-09T10:51:02.570Z,26.30
2019-01-09T10:56:30.847Z,34.37
2019-01-09T11:05:27.590Z,29.03
2019-01-09T11:08:02.927Z,28.43
2019-01-09T11:11:41.159Z,28.80
2019-01-09T11:13:39.802Z,26.93
2019-01-09T11:16:22.914Z,30.30
2019-01-09T11:19:07.432Z,45.20
2019-01-09T11:21:52.873Z,33.53
2019-01-09T11:24:56.528Z,29.00
2019-01-09T11:27:27.643Z,29.33
2019-01-09T11:30:10.370Z,28.50
2019-01-09T11:32:51.632Z,28.47
2019-01-09T11:35:35.768Z,29.23
2019-01-09T11:38:22.766Z,29.40
2019-01-09T11:41:04.563Z,29.87
2019-01-09T11:44:05.536Z,27.03
2019-01-09T11:46:37.281Z,27.77
2019-01-09T11:49:22.028Z,30.60
2019-01-09T11:54:54.209Z,33.13
2019-01-09T12:00:25.403Z,32.07
2019-01-09T12:03:12.312Z,32.87
2019-01-09T12:05:58.349Z,30.83
2019-01-09T12:14:42.638Z,30.30
2019-01-09T12:20:06.685Z,28.90
2019-01-09T12:22:50.916Z,31.93
2019-01-09T12:25:35.499Z,33.13
2019-01-09T12:28:24.636Z,34.33
2019-01-09T12:39:22.413Z,31.30
2019-01-09T12:48:26.254Z,32.20
2019-01-09T12:50:56.508Z,32.03
2019-01-09T12:54:07.263Z,33.97
2019-01-09T12:57:00.615Z,37.13
2019-01-09T12:59:42.646Z,32.87
2019-01-09T13:02:26.166Z,29.27
2019-01-09T13:04:57.855Z,30.77
2019-01-09T13:10:36.371Z,33.30
2019-01-09T13:13:17.715Z,31.70
2019-01-09T13:15:47.916Z,30.87
2019-01-09T13:18:18.127Z,32.93
2019-01-09T13:26:40.577Z,34.43
2019-01-09T13:29:21.667Z,32.93
2019-01-09T13:32:03.854Z,31.40
2019-01-09T13:54:57.249Z,36.77
2019-01-09T14:00:25.017Z,40.47
2019-01-09T14:03:32.799Z,34.53
2019-01-09T14:08:49.195Z,34.30
2019-01-09T14:14:17.633Z,36.37
2019-01-09T14:17:06.844Z,33.83
2019-01-09T14:19:49.602Z,35.17
2019-01-09T14:22:33.216Z,36.13
2019-01-09T14:25:15.285Z,37.83
2019-01-09T14:31:08.103Z,36.37
2019-01-09T14:33:37.356Z,34.07
2019-01-09T14:39:28.638Z,37.73
2019-01-09T14:42:30.354Z,41.87
2019-01-09T14:45:03.513Z,36.03
2019-01-09T14:47:44.883Z,38.50
2019-01-09T14:50:25.966Z,36.33
2019-01-09T14:55:58.402Z,36.90
2019-01-09T15:01:26.186Z,37.87
2019-01-09T15:06:55.251Z,37.67
2019-01-09T15:09:44.787Z,34.87
2019-01-09T15:12:22.110Z,36.77
2019-01-09T15:15:03.337Z,37.53
2019-01-09T15:17:44.694Z,35.57
2019-01-09T15:20:26.116Z,36.97
2019-01-09T15:23:07.832Z,37.80
2019-01-09T15:25:49.963Z,38.17
2019-01-09T15:28:31.357Z,37.67
2019-01-09T15:31:01.331Z,36.27
2019-01-09T15:33:50.528Z,36.07
2019-01-09T15:39:41.576Z,37.00
2019-01-09T15:42:23.022Z,35.20
2019-01-09T15:45:04.383Z,36.47
2019-01-09T15:47:48.170Z,36.50
2019-01-09T15:50:29.778Z,37.37
2019-01-09T15:53:11.358Z,38.93
2019-01-09T15:55:52.949Z,40.07
2019-01-09T15:58:34.585Z,37.17
2019-01-09T16:01:04.638Z,38.57
2019-01-09T16:03:53.574Z,40.57
2019-01-09T16:06:34.805Z,41.50
2019-01-09T16:09:25.869Z,39.50
2019-01-09T16:12:14.872Z,37.03
2019-01-09T16:14:56.113Z,38.03
2019-01-09T16:17:37.067Z,36.30
2019-01-09T16:20:16.295Z,37.87
2019-01-09T16:22:58.791Z,36.57
2019-01-09T16:25:40.546Z,39.87
2019-01-09T16:28:22.439Z,39.33
2019-01-09T16:31:03.706Z,39.00
2019-01-09T16:33:45.410Z,39.00
2019-01-09T16:36:30.067Z,38.87
2019-01-09T16:39:13.429Z,40.67
2019-01-09T16:41:54.659Z,42.47
2019-01-09T16:44:38.488Z,41.73
2019-01-09T16:50:18.227Z,52.60
2019-01-09T16:52:59.444Z,43.93
2019-01-09T16:55:34.032Z,50.00
2019-01-09T16:58:23.013Z,38.43
2019-01-09T17:01:04.735Z,35.87
2019-01-09T17:03:46.430Z,36.40
2019-01-09T17:06:27.736Z,39.93
2019-01-09T17:09:09.617Z,34.83
2019-01-09T17:11:51.728Z,30.80
2019-01-09T17:14:34.025Z,37.80
2019-01-09T17:23:13.205Z,34.03
2019-01-09T17:26:17.849Z,32.60
2019-01-09T17:35:07.403Z,34.47
2019-01-09T17:52:38.531Z,33.00
2019-01-09T17:58:04.531Z,36.77
2019-01-09T18:00:50.168Z,35.43
2019-01-09T18:07:37.433Z,33.00
2019-01-09T18:09:27.848Z,35.37
2019-01-09T18:12:09.456Z,35.30
2019-01-09T18:17:44.935Z,34.93
2019-01-09T18:20:29.843Z,32.33
2019-01-09T18:26:06.701Z,39.93
2019-01-09T18:28:47.918Z,37.57
2019-01-09T18:34:40.880Z,35.90
2019-01-09T18:39:55.656Z,35.20
2019-01-09T18:48:09.640Z,36.50
2019-01-09T18:50:53.467Z,37.40
2019-01-09T18:53:34.266Z,38.53
2019-01-09T18:56:25.214Z,38.47
2019-01-09T18:59:26.170Z,45.23
2019-01-09T19:04:41.481Z,38.50
2019-01-09T19:17:10.961Z,36.40
2019-01-09T19:31:14.672Z,36.23
2019-01-09T19:39:53.616Z,37.47
2019-01-09T19:45:27.660Z,36.87
2019-01-09T19:48:09.738Z,40.43
2019-01-09T19:50:51.703Z,45.57
2019-01-09T19:53:33.058Z,37.73
2019-01-09T19:56:14.857Z,35.30
2019-01-09T19:59:00.244Z,42.50
2019-01-09T20:01:41.691Z,35.33
2019-01-09T20:07:16.514Z,37.30
2019-01-09T20:10:09.446Z,35.60
2019-01-09T20:18:46.510Z,35.60
2019-01-09T20:21:57.780Z,36.07
2019-01-09T20:25:02.277Z,36.70
2019-01-09T20:28:07.095Z,37.07
2019-01-09T21:00:15.054Z,37.70
2019-01-09T21:04:46.513Z,38.20
2019-01-09T21:14:39.748Z,31.70
2019-01-09T21:31:35.157Z,33.20
2019-01-09T22:24:40.798Z,37.73
2019-01-09T22:34:20.875Z,31.73
2019-01-09T22:40:33.983Z,28.47
2019-01-09T22:43:05.579Z,32.83
2019-01-09T22:48:21.092Z,28.67
2019-01-09T22:52:23.362Z,31.23
2019-01-09T22:53:54.556Z,25.63
2019-01-09T22:59:46.408Z,20.37
2019-01-09T23:08:07.484Z,26.20
2019-01-09T23:13:41.594Z,18.23
2019-01-09T23:34:23.027Z,23.33
2019-01-09T23:38:19.216Z,24.67
